Fredonia, North Dakota
Current Conditions -  °F | °C
As of 8:56 PM on Monday 22 Dec 2014 (Local Time) from KJMS Reporting Station
Haze Haze  
Wind Chill: 25°   Ceiling: 300
Heat Index: 34°   Visibility: 1.5mi
Dew Point: 33°   Wind: 12mph
Humidity: 96%   Direction: 30°NNE
Pressure: 29.63"   Gusts: NA
Location:  46.33°N, 99.1°W
Report Text: KJMS 230256Z AUTO 03010KT 1 1/2SM BR OVC003 01/01 A2963 RMK AO2 RAE02 SLP051 P0000 60000 T00110006 51017
Loading
Personal Weather Stations






























Interactive Weather Map New forecast layout! Learn more

10-Day Weather Forecast

Advertisements
Track Severe Weather on mobile